Traben Trarbach, Germania

02:26 PM CEST die 02o October, anno 2014 (GMT +0200)
Mittelmosel | Change Station
CLOSE
Current Station
Personal Weather Stations
Location: Traben-Trarbach, RHEINLAND-PFALZ
Elevation: 367 ft
Nearby Weather Stations

Elev 367 ft 49.97 °N, 7.11 °E | Updated 1 minute ago

Mostly Cloudy
Plerumque Nubila
72.8 °F
Feels Like 74 °F
N
0.0
Ventus Variabilis Ventus from Magis Aquilo quam Zephyrus
Gusts 0.0 mph

Hodie
High -- | Low -- °F
--% Chance of Precip.
Yesterday
High -- | Low -- °F
Precip. -- in
7:32 AM 7:08 PM
First Quarter, 58% visible
Pressio 30.39 in
Visibilitas 6.2 milia passuum
Clouds Few 2800 ft
Plerumque Nubila 21000 ft
Index Caloris 74 °F
Frigus in quo Ros apparet 64 °F
Umor 73%
Rainfall 0.00 in
Snow Depth Not available.
UV 2 out of 12
Pollen Not available.
Air Quality Not available.
Flu Activity Not available.
METAR EDFH 021220Z 12004KT 090V160 9999 FEW028 BKN210 19/12 Q1029

More Conditions Fewer Conditions

Pressio 30.39 in
Visibilitas 6.2 milia passuum
Clouds Few 2800 ft
Plerumque Nubila 21000 ft
Index Caloris 74 °F
Frigus in quo Ros apparet 64 °F
Umor 73%
Rainfall 0.00 in
Snow Depth Not available.
UV 2 out of 12
Pollen Not available.
Air Quality Not available.
Flu Activity Not available.
METAR EDFH 021220Z 12004KT 090V160 9999 FEW028 BKN210 19/12 Q1029

More Conditions Fewer Conditions

10-Day Weather Forecast

Almanac

Astronomy

Oct. 02, 2014 Rise Set
Actual Time 7:32 AM CEST 7:08 PM CEST
Civil Twilight 7:00 AM CEST 7:40 PM CEST
Nautical Twilight 6:22 AM CEST 8:17 PM CEST
Astronomical Twilight 5:44 AM CEST 8:55 PM CEST
Moon 3:32 PM CEST 12:00 AM CEST
Length Of Visible Light 12h 39m
Length of Day
11h 35m
Tomorrow will be 3m 41s shorter.
First Quarter, 58% of the Moon is Illuminated
Hodie
First Quarter
Oct 8
Full
Oct 15
Last Quarter
Oct 23
New
Oct 30
First Quarter

Yesterday's Extremes

Country Highs Country Lows

Community

WunderPhotos

Upload Photos

1,758,223 photos uploaded!

WunderBlogs® & News

Nearby

Snow Depth

Not available.

Earthquake Activity

City Distance Mag. Time & Date
No recent earthquake activity has been reported nearby.
Minimum magnitude displayed is 2.5.

Coastal Water Temperatures

Locus Calor
No Stations Reporting

Nearby Weather Stations